Time;durP1;ratioP1;P1;durP2;ratioP2;P2;SDS_P1;SDS_P2;PMS_P1;PMS_P2;Temp;Humidity;BMP_temperature;BMP_pressure;BME280_temperature;BME280_humidity;BME280_pressure;Samples;Min_cycle;Max_cycle;Signal;HPM_P1;HPM_P2
2023/07/20 00:01:47;;;;;;;0.40;0.40;;;18.30;99.90;;;;;;5033254;28;20484;-70
2023/07/20 00:04:13;;;;;;;0.73;0.73;;;18.40;99.90;;;;;;5033563;28;20520;-70
2023/07/20 00:06:40;;;;;;;0.40;0.40;;;18.30;99.90;;;;;;5033428;28;20917;-70
2023/07/20 00:09:08;;;;;;;0.40;0.40;;;18.40;99.90;;;;;;5033434;28;20475;-70
2023/07/20 00:11:39;;;;;;;0.53;0.50;;;18.00;99.90;;;;;;5033212;28;20412;-70
2023/07/20 00:14:06;;;;;;;11.37;0.70;;;17.80;99.90;;;;;;5033815;28;20452;-71
2023/07/20 00:16:32;;;;;;;0.40;0.40;;;17.70;99.90;;;;;;5033252;28;20406;-70
2023/07/20 00:18:57;;;;;;;0.70;0.70;;;17.70;99.90;;;;;;5033135;28;20470;-70
2023/07/20 00:21:23;;;;;;;0.70;0.70;;;18.10;99.90;;;;;;5033189;28;20171;-71
2023/07/20 00:23:49;;;;;;;1.33;1.13;;;18.10;99.90;;;;;;5033367;28;20910;-71
2023/07/20 00:26:14;;;;;;;0.40;0.40;;;17.80;99.90;;;;;;5033152;28;20656;-70
2023/07/20 00:28:40;;;;;;;1.23;1.20;;;17.70;99.90;;;;;;5033125;28;20191;-70
2023/07/20 00:31:06;;;;;;;0.77;0.77;;;17.90;99.90;;;;;;5033009;28;20190;-70
2023/07/20 00:33:32;;;;;;;1.07;0.60;;;;;;;;;;5033205;28;20183;-70
2023/07/20 00:35:58;;;;;;;0.50;0.50;;;17.50;99.90;;;;;;5033249;28;20179;-70
2023/07/20 00:38:23;;;;;;;0.50;0.50;;;17.60;99.90;;;;;;5032936;28;20487;-70
2023/07/20 00:40:49;;;;;;;0.70;0.70;;;17.50;99.90;;;;;;5032655;28;20259;-70
2023/07/20 00:43:15;;;;;;;1.03;0.60;;;;;;;;;;5032817;28;20226;-70
2023/07/20 00:45:42;;;;;;;0.50;0.40;;;17.50;99.90;;;;;;5033239;28;20175;-70
2023/07/20 00:48:08;;;;;;;0.70;0.67;;;17.50;99.90;;;;;;5036645;28;20425;-71
2023/07/20 00:50:34;;;;;;;0.40;0.40;;;17.30;99.90;;;;;;5036774;28;20421;-71
2023/07/20 00:53:01;;;;;;;1.37;1.37;;;;;;;;;;5036561;28;20410;-70
2023/07/20 00:55:28;;;;;;;1.37;1.27;;;17.60;99.90;;;;;;5036467;28;20583;-71
2023/07/20 00:57:53;;;;;;;0.60;0.50;;;17.50;99.90;;;;;;5036538;28;20440;-70
2023/07/20 01:00:19;;;;;;;1.40;0.80;;;17.20;99.90;;;;;;5036817;28;20890;-69
2023/07/20 01:02:46;;;;;;;0.73;0.60;;;17.00;99.90;;;;;;5036698;28;20456;-70
2023/07/20 01:05:13;;;;;;;0.40;0.40;;;17.40;99.90;;;;;;5036658;28;20171;-70
2023/07/20 01:07:48;;;;;;;0.77;0.77;;;17.00;99.90;;;;;;5036566;28;20430;-70
2023/07/20 01:10:28;;;;;;;0.67;0.67;;;17.90;99.90;;;;;;5036520;28;20405;-71
2023/07/20 01:12:55;;;;;;;1.77;1.67;;;17.10;99.90;;;;;;5036481;28;20412;-70
2023/07/20 01:15:21;;;;;;;0.60;0.60;;;16.80;99.90;;;;;;5036422;28;20816;-69
2023/07/20 01:17:46;;;;;;;1.10;1.10;;;16.90;99.90;;;;;;5036350;28;20449;-70
2023/07/20 01:20:19;;;;;;;0.40;0.40;;;16.90;99.90;;;;;;5036291;28;20432;-70
2023/07/20 01:23:18;;;;;;;1.03;1.00;;;16.70;99.90;;;;;;5036207;28;20226;-71
2023/07/20 01:26:11;;;;;;;0.50;0.50;;;16.30;99.90;;;;;;5036314;28;20401;-70
2023/07/20 01:28:57;;;;;;;0.97;0.97;;;16.50;99.90;;;;;;5036100;28;20417;-70
2023/07/20 01:31:26;;;;;;;0.40;0.40;;;16.30;99.90;;;;;;5035935;28;20418;-69
2023/07/20 01:33:56;;;;;;;0.40;0.40;;;16.50;99.90;;;;;;5036169;28;20406;-70
2023/07/20 01:36:24;;;;;;;1.50;1.23;;;16.80;99.90;;;;;;5036153;28;20503;-70
2023/07/20 01:38:51;;;;;;;0.87;0.87;;;16.60;99.90;;;;;;5035729;28;20441;-70
2023/07/20 01:41:18;;;;;;;0.60;0.60;;;16.80;99.90;;;;;;5035344;28;20420;-70
2023/07/20 01:43:44;;;;;;;0.60;0.57;;;16.50;99.90;;;;;;5035923;28;20457;-70
2023/07/20 01:46:10;;;;;;;0.60;0.60;;;16.70;99.90;;;;;;5035919;28;20409;-70
2023/07/20 01:48:35;;;;;;;0.40;0.40;;;16.70;99.90;;;;;;5035788;28;20789;-71
2023/07/20 01:51:01;;;;;;;0.70;0.70;;;;;;;;;;5035752;28;20410;-71
2023/07/20 01:53:27;;;;;;;0.70;0.70;;;16.70;99.90;;;;;;5035920;28;20639;-70
2023/07/20 01:55:56;;;;;;;0.90;0.90;;;16.70;99.90;;;;;;5035928;28;20409;-69
2023/07/20 01:58:22;;;;;;;0.70;0.70;;;16.40;99.90;;;;;;5034804;28;20203;-70
2023/07/20 02:00:48;;;;;;;0.60;0.60;;;16.50;99.90;;;;;;5035705;28;20401;-70
2023/07/20 02:03:13;;;;;;;1.80;0.70;;;16.60;99.90;;;;;;5035515;28;20460;-70
2023/07/20 02:05:39;;;;;;;0.50;0.50;;;16.70;99.90;;;;;;5035643;28;20175;-70
2023/07/20 02:08:05;;;;;;;0.90;0.90;;;16.70;99.90;;;;;;5035624;28;20195;-69
2023/07/20 02:10:30;;;;;;;1.77;1.40;;;16.20;99.90;;;;;;5035565;28;20170;-71
2023/07/20 02:12:56;;;;;;;2.57;1.33;;;16.30;99.90;;;;;;5034954;28;20619;-70
2023/07/20 02:15:22;;;;;;;0.60;0.60;;;16.20;99.90;;;;;;5035779;28;20174;-69
2023/07/20 02:17:48;;;;;;;0.70;0.70;;;16.20;99.90;;;;;;5034963;28;20842;-71
2023/07/20 02:20:14;;;;;;;0.70;0.70;;;16.30;99.90;;;;;;5035800;28;20178;-70
2023/07/20 02:22:40;;;;;;;0.83;0.80;;;16.10;99.90;;;;;;5034978;28;20201;-70
2023/07/20 02:25:07;;;;;;;1.03;0.90;;;16.40;99.90;;;;;;5035260;28;20175;-70
2023/07/20 02:27:33;;;;;;;2.50;1.80;;;16.40;99.90;;;;;;5035291;28;20433;-68
2023/07/20 02:29:59;;;;;;;0.83;0.83;;;16.20;99.90;;;;;;5035448;28;20405;-72
2023/07/20 02:32:24;;;;;;;0.80;0.70;;;15.80;99.90;;;;;;5035314;28;20408;-69
2023/07/20 02:34:50;;;;;;;1.10;1.10;;;15.80;99.90;;;;;;5035603;28;20177;-69
2023/07/20 02:37:17;;;;;;;1.27;1.27;;;15.60;99.90;;;;;;5035140;28;20209;-69
2023/07/20 02:39:42;;;;;;;1.53;0.83;;;15.70;99.90;;;;;;5035006;28;20796;-70
2023/07/20 02:42:08;;;;;;;0.70;0.70;;;15.80;99.90;;;;;;5034843;28;20837;-70
2023/07/20 02:44:34;;;;;;;0.90;0.60;;;15.70;99.90;;;;;;5035118;28;20226;-72
2023/07/20 02:46:59;;;;;;;0.73;0.73;;;15.90;99.90;;;;;;5034741;28;20411;-70
2023/07/20 02:49:25;;;;;;;2.23;1.27;;;15.90;99.90;;;;;;5035298;28;20424;-69
2023/07/20 02:51:51;;;;;;;0.70;0.70;;;15.70;99.90;;;;;;5034743;28;20590;-68
2023/07/20 02:54:17;;;;;;;1.07;0.70;;;;;;;;;;5034739;28;20188;-68
2023/07/20 02:56:42;;;;;;;0.40;0.40;;;16.00;99.90;;;;;;5034771;28;20174;-69
2023/07/20 02:59:08;;;;;;;0.70;0.70;;;16.00;99.90;;;;;;5034826;28;20425;-70
2023/07/20 03:01:34;;;;;;;1.33;0.70;;;;;;;;;;5034510;28;20224;-71
2023/07/20 03:04:00;;;;;;;0.57;0.57;;;15.50;99.90;;;;;;5034516;28;20463;-70
2023/07/20 03:06:25;;;;;;;0.97;0.60;;;15.70;99.90;;;;;;5034817;28;20411;-71
2023/07/20 03:08:53;;;;;;;1.10;1.10;;;15.60;99.90;;;;;;5034267;28;20192;-70
2023/07/20 03:11:19;;;;;;;0.40;0.40;;;15.70;99.90;;;;;;5034313;28;20167;-70
2023/07/20 03:13:45;;;;;;;0.90;0.90;;;16.00;99.90;;;;;;5034457;28;20401;-69
2023/07/20 03:16:12;;;;;;;0.60;0.60;;;15.60;99.90;;;;;;5034613;28;20405;-70
2023/07/20 03:18:41;;;;;;;1.40;1.30;;;15.90;99.90;;;;;;5034109;28;20619;-70
2023/07/20 03:21:08;;;;;;;0.73;0.63;;;16.10;99.90;;;;;;5034530;28;20423;-69
2023/07/20 03:23:34;;;;;;;0.73;0.60;;;15.50;99.90;;;;;;5034017;28;20960;-70
2023/07/20 03:26:00;;;;;;;0.73;0.73;;;15.80;99.90;;;;;;5034416;28;20420;-70
2023/07/20 03:28:26;;;;;;;2.37;0.87;;;15.50;99.90;;;;;;5034624;28;20202;-70
2023/07/20 03:30:58;;;;;;;0.40;0.40;;;15.80;99.90;;;;;;5033892;28;20418;-70
2023/07/20 03:33:29;;;;;;;0.87;0.43;;;15.70;99.90;;;;;;5034545;28;20175;-70
2023/07/20 03:35:55;;;;;;;0.63;0.63;;;15.70;99.90;;;;;;5033360;28;20444;-70
2023/07/20 03:38:24;;;;;;;2.30;1.40;;;15.40;99.90;;;;;;5034249;28;20429;-70
2023/07/20 03:41:00;;;;;;;1.60;1.17;;;15.60;99.90;;;;;;5033576;28;20458;-69
2023/07/20 03:43:27;;;;;;;1.07;0.70;;;15.40;99.90;;;;;;5033684;28;20802;-69
2023/07/20 03:45:53;;;;;;;1.00;1.00;;;15.50;99.90;;;;;;5033863;28;20405;-69
2023/07/20 03:48:21;;;;;;;2.07;0.80;;;15.70;99.90;;;;;;5033601;28;20433;-70
2023/07/20 03:50:48;;;;;;;0.97;0.50;;;16.90;99.90;;;;;;5033556;28;20171;-69
2023/07/20 03:53:14;;;;;;;2.33;2.23;;;14.80;99.90;;;;;;5034223;28;20464;-70
2023/07/20 03:55:50;;;;;;;0.50;0.50;;;15.20;99.90;;;;;;5034036;28;20409;-69
2023/07/20 03:58:16;;;;;;;1.73;0.97;;;15.40;99.90;;;;;;5033691;28;20423;-70
2023/07/20 04:00:53;;;;;;;0.60;0.60;;;15.30;99.90;;;;;;5033653;28;20406;-70
2023/07/20 04:03:24;;;;;;;0.63;0.63;;;15.30;99.90;;;;;;5032743;28;20462;-69
2023/07/20 04:05:50;;;;;;;1.60;0.90;;;15.40;99.90;;;;;;5033759;28;20418;-70
2023/07/20 04:08:16;;;;;;;0.60;0.60;;;15.60;99.90;;;;;;5033203;28;20436;-69
2023/07/20 04:10:44;;;;;;;0.70;0.70;;;15.40;99.90;;;;;;5015684;28;20186;-70
2023/07/20 04:13:10;;;;;;;0.50;0.50;;;15.10;99.90;;;;;;5015039;28;20428;-71
2023/07/20 04:15:36;;;;;;;1.60;0.73;;;15.20;99.90;;;;;;5033736;28;20421;-70
2023/07/20 04:18:01;;;;;;;2.23;1.50;;;15.10;99.90;;;;;;5033250;28;20217;-70
2023/07/20 04:20:27;;;;;;;0.90;0.50;;;15.60;99.90;;;;;;5034684;28;20178;-69
2023/07/20 04:22:53;;;;;;;3.03;2.83;;;;;;;;;;5039703;28;20658;-69
2023/07/20 04:25:19;;;;;;;1.43;0.60;;;15.20;99.90;;;;;;5040039;28;20165;-69
2023/07/20 04:27:45;;;;;;;0.50;0.50;;;15.30;99.90;;;;;;5040073;28;20448;-69
2023/07/20 04:30:12;;;;;;;1.17;0.80;;;18.10;99.90;;;;;;5022497;28;20175;-69
2023/07/20 04:32:46;;;;;;;0.97;0.60;;;15.10;99.90;;;;;;5040301;28;20612;-70
2023/07/20 04:35:37;;;;;;;0.50;0.50;;;15.50;99.90;;;;;;5040305;28;20405;-70
2023/07/20 04:38:03;;;;;;;0.60;0.60;;;;;;;;;;5039897;28;20532;-69
2023/07/20 04:40:29;;;;;;;0.40;0.40;;;15.60;99.90;;;;;;5040114;28;20441;-69
2023/07/20 04:42:54;;;;;;;0.50;0.50;;;15.50;99.90;;;;;;5039874;28;20449;-69
2023/07/20 04:45:22;;;;;;;0.40;0.40;;;16.00;99.90;;;;;;5040288;28;20180;-69
2023/07/20 04:47:50;;;;;;;1.63;1.53;;;16.40;99.90;;;;;;5040096;28;20193;-69
2023/07/20 04:50:15;;;;;;;0.90;0.70;;;16.30;99.90;;;;;;5039797;28;20444;-70
2023/07/20 04:52:41;;;;;;;1.10;1.10;;;;;;;;;;5039744;28;20437;-68
2023/07/20 04:55:07;;;;;;;12.07;1.07;;;17.10;99.90;;;;;;5037686;28;20276;-69
2023/07/20 04:57:33;;;;;;;0.60;0.60;;;16.90;99.90;;;;;;5037591;28;20516;-69
2023/07/20 04:59:59;;;;;;;0.87;0.67;;;17.00;99.90;;;;;;5038586;28;20508;-70
2023/07/20 05:02:25;;;;;;;1.33;1.20;;;17.40;99.90;;;;;;5038285;28;20195;-70
2023/07/20 05:04:51;;;;;;;1.17;1.17;;;17.70;99.90;;;;;;5038663;28;20171;-69
2023/07/20 05:07:16;;;;;;;1.10;0.70;;;17.80;99.90;;;;;;5038595;28;20779;-69
2023/07/20 05:09:42;;;;;;;1.30;1.20;;;18.00;99.90;;;;;;5039245;28;20187;-70
2023/07/20 05:12:08;;;;;;;0.97;0.73;;;18.20;96.80;;;;;;5039368;28;20228;-69
2023/07/20 05:14:33;;;;;;;1.10;1.00;;;19.00;95.60;;;;;;5039604;28;20172;-69
2023/07/20 05:16:59;;;;;;;3.50;2.20;;;20.30;99.90;;;;;;5039481;28;20516;-69
2023/07/20 05:19:31;;;;;;;1.00;1.00;;;20.10;92.70;;;;;;5039324;28;20192;-70
2023/07/20 05:21:56;;;;;;;0.60;0.60;;;20.10;92.30;;;;;;5039214;28;20173;-69
2023/07/20 05:24:22;;;;;;;1.33;0.70;;;20.10;92.00;;;;;;5039480;28;20848;-69
2023/07/20 05:26:48;;;;;;;0.53;0.53;;;;;;;;;;5039425;28;20650;-69
2023/07/20 05:29:14;;;;;;;1.17;1.17;;;20.00;99.90;;;;;;5039302;28;20178;-69
2023/07/20 05:31:40;;;;;;;1.73;1.63;;;20.30;99.90;;;;;;5038706;28;20912;-69
2023/07/20 05:34:05;;;;;;;0.93;0.93;;;20.20;90.90;;;;;;5036519;28;20182;-70
2023/07/20 05:36:31;;;;;;;1.00;0.90;;;20.10;91.10;;;;;;5036173;28;20428;-69
2023/07/20 05:38:57;;;;;;;0.50;0.50;;;20.10;91.20;;;;;;5036039;28;20198;-69
2023/07/20 05:41:22;;;;;;;1.40;1.30;;;20.40;99.90;;;;;;5036066;28;20175;-70
2023/07/20 05:43:48;;;;;;;1.23;1.07;;;20.10;92.00;;;;;;5035922;28;20237;-70
2023/07/20 05:46:14;;;;;;;0.70;0.70;;;20.20;91.20;;;;;;5035920;28;20198;-69
2023/07/20 05:48:39;;;;;;;0.70;0.67;;;19.90;90.70;;;;;;5036061;28;20557;-70
2023/07/20 05:51:05;;;;;;;1.30;1.20;;;20.20;99.90;;;;;;5035260;28;20258;-70
2023/07/20 05:53:31;;;;;;;2.37;1.20;;;20.40;99.90;;;;;;5036018;28;20171;-70
2023/07/20 05:55:57;;;;;;;0.50;0.50;;;20.60;99.90;;;;;;5035978;28;20446;-69
2023/07/20 05:58:23;;;;;;;3.77;1.10;;;21.10;99.90;;;;;;5035523;28;20232;-69
2023/07/20 06:00:50;;;;;;;1.00;0.90;;;21.00;90.90;;;;;;5035762;28;20804;-70
2023/07/20 06:03:21;;;;;;;0.73;0.67;;;21.80;99.90;;;;;;5035844;28;20458;-69
2023/07/20 06:05:46;;;;;;;0.80;0.70;;;22.00;99.90;;;;;;5036086;28;20460;-69
2023/07/20 06:08:12;;;;;;;0.67;0.67;;;21.70;89.40;;;;;;5035913;28;20916;-70
2023/07/20 06:10:38;;;;;;;0.63;0.50;;;;;;;;;;5033635;28;20177;-69
2023/07/20 06:13:04;;;;;;;1.63;1.10;;;21.30;99.90;;;;;;5034364;28;20174;-69
2023/07/20 06:15:36;;;;;;;0.50;0.50;;;22.10;99.90;;;;;;5034421;28;20775;-70
2023/07/20 06:18:03;;;;;;;0.67;0.67;;;21.90;99.90;;;;;;5034211;28;20220;-69
2023/07/20 06:20:29;;;;;;;0.90;0.90;;;22.30;99.90;;;;;;5035296;28;20412;-70
2023/07/20 06:22:55;;;;;;;1.50;1.40;;;;;;;;;;5035209;28;20502;-69
2023/07/20 06:25:21;;;;;;;1.47;0.60;;;22.90;99.90;;;;;;5034903;28;20265;-69
2023/07/20 06:27:49;;;;;;;3.53;1.00;;;23.30;83.70;;;;;;5035470;28;20516;-70
2023/07/20 06:30:14;;;;;;;0.70;0.70;;;23.70;82.40;;;;;;5034747;28;20175;-70
2023/07/20 06:32:40;;;;;;;1.10;1.00;;;26.50;98.30;;;;;;5035175;28;20860;-70
2023/07/20 06:35:06;;;;;;;0.60;0.60;;;26.40;76.50;;;;;;5035237;28;20186;-70
2023/07/20 06:37:32;;;;;;;0.73;0.73;;;29.30;93.60;;;;;;5034961;28;20191;-71
2023/07/20 06:39:58;;;;;;;2.40;1.03;;;31.00;90.20;;;;;;5034820;28;20467;-70
2023/07/20 06:42:23;;;;;;;0.60;0.60;;;32.50;63.70;;;;;;5034550;28;20453;-71
2023/07/20 06:44:49;;;;;;;0.83;0.67;;;32.20;53.90;;;;;;5033808;28;20177;-71
2023/07/20 06:47:15;;;;;;;1.10;1.00;;;33.20;49.40;;;;;;5034683;28;20195;-71
2023/07/20 06:49:40;;;;;;;1.07;0.70;;;33.30;76.00;;;;;;5034301;28;20261;-70
2023/07/20 06:52:06;;;;;;;0.77;0.70;;;33.30;74.80;;;;;;5034534;28;20626;-71
2023/07/20 06:54:32;;;;;;;0.40;0.40;;;33.70;74.40;;;;;;5034861;28;20171;-71
2023/07/20 06:56:58;;;;;;;1.17;0.50;;;33.70;64.30;;;;;;5034357;28;20419;-70
2023/07/20 06:59:24;;;;;;;2.60;1.33;;;33.60;44.30;;;;;;5034326;28;20175;-71
2023/07/20 07:01:50;;;;;;;1.27;0.80;;;31.50;74.10;;;;;;5034687;28;20325;-70
2023/07/20 07:04:15;;;;;;;0.70;0.60;;;31.00;80.20;;;;;;5034201;28;20582;-71
2023/07/20 07:06:41;;;;;;;0.60;0.60;;;30.60;80.30;;;;;;5033504;28;20177;-70
2023/07/20 07:09:08;;;;;;;0.87;0.60;;;30.10;69.20;;;;;;5034342;28;20182;-70
2023/07/20 07:11:34;;;;;;;0.87;0.83;;;29.40;69.90;;;;;;5034113;28;20174;-70
2023/07/20 07:14:00;;;;;;;0.63;0.53;;;28.60;64.20;;;;;;5034202;28;20467;-70
2023/07/20 07:16:25;;;;;;;1.33;1.10;;;;;;;;;;5033826;28;20413;-70
2023/07/20 07:18:51;;;;;;;0.50;0.50;;;26.80;89.90;;;;;;5034000;28;20693;-70
2023/07/20 07:21:17;;;;;;;0.50;0.50;;;;;;;;;;5033659;28;20544;-70
2023/07/20 07:23:43;;;;;;;1.83;1.73;;;26.10;90.10;;;;;;5034138;28;20208;-71
2023/07/20 07:26:12;;;;;;;0.90;0.90;;;26.40;53.00;;;;;;5033917;28;20375;-70
2023/07/20 07:28:37;;;;;;;0.40;0.40;;;25.70;76.50;;;;;;5033906;28;20964;-70
2023/07/20 07:31:06;;;;;;;0.40;0.40;;;25.20;86.50;;;;;;5033816;28;20420;-70
2023/07/20 07:33:32;;;;;;;1.07;0.60;;;;;;;;;;5033999;28;20178;-70
2023/07/20 07:35:58;;;;;;;1.17;0.60;;;25.20;89.60;;;;;;5033796;28;20488;-70
2023/07/20 07:38:24;;;;;;;0.50;0.50;;;25.40;66.60;;;;;;5015976;28;20510;-70
2023/07/20 07:40:49;;;;;;;1.00;0.80;;;25.60;90.70;;;;;;5033626;28;20178;-70
2023/07/20 07:43:15;;;;;;;1.00;1.00;;;26.40;87.30;;;;;;5033836;28;20210;-70
2023/07/20 07:45:41;;;;;;;0.80;0.50;;;26.20;52.70;;;;;;5034016;28;20178;-70
2023/07/20 07:48:07;;;;;;;0.80;0.63;;;28.70;72.00;;;;;;5033669;28;20536;-70
2023/07/20 07:50:33;;;;;;;0.70;0.50;;;28.50;50.80;;;;;;5033886;28;20202;-69
2023/07/20 07:52:59;;;;;;;11.40;0.90;;;28.90;48.20;;;;;;5033878;28;20650;-69
2023/07/20 07:55:28;;;;;;;1.00;0.70;;;29.50;50.10;;;;;;5032818;28;20405;-69
2023/07/20 07:57:54;;;;;;;0.47;0.47;;;29.90;48.40;;;;;;5033680;28;20431;-70
2023/07/20 08:00:20;;;;;;;0.83;0.83;;;29.40;47.90;;;;;;5033819;28;20413;-69
2023/07/20 08:02:49;;;;;;;0.60;0.60;;;29.00;49.00;;;;;;5033700;28;20457;-70
2023/07/20 08:05:14;;;;;;;0.40;0.40;;;28.50;49.60;;;;;;5033941;28;20170;-70
2023/07/20 08:07:40;;;;;;;1.70;0.57;;;27.90;48.70;;;;;;5033827;28;20468;-69
2023/07/20 08:10:07;;;;;;;1.10;0.80;;;27.40;50.20;;;;;;5033680;28;20689;-72
2023/07/20 08:12:32;;;;;;;0.87;0.80;;;27.00;52.60;;;;;;5033433;28;20496;-70
2023/07/20 08:14:58;;;;;;;0.50;0.50;;;26.90;53.70;;;;;;5033509;28;20416;-70
2023/07/20 08:17:24;;;;;;;2.57;0.60;;;;;;;;;;5033633;28;20190;-70
2023/07/20 08:19:50;;;;;;;3.07;0.60;;;26.80;51.30;;;;;;5033407;28;20368;-70
2023/07/20 08:22:15;;;;;;;1.10;1.00;;;26.70;53.70;;;;;;5032772;28;20834;-70
2023/07/20 08:24:43;;;;;;;1.80;0.93;;;26.50;52.70;;;;;;5032957;28;20213;-70
2023/07/20 08:27:08;;;;;;;0.70;0.70;;;26.80;82.20;;;;;;5033168;28;20592;-71
2023/07/20 08:29:35;;;;;;;0.60;0.60;;;26.70;54.30;;;;;;5033413;28;20402;-70
2023/07/20 08:32:01;;;;;;;0.80;0.53;;;26.90;53.60;;;;;;5033058;28;20368;-70
2023/07/20 08:34:26;;;;;;;0.70;0.70;;;26.90;53.20;;;;;;5033191;28;20446;-70
2023/07/20 08:36:52;;;;;;;0.83;0.77;;;26.20;77.20;;;;;;5032995;28;20380;-70
2023/07/20 08:39:18;;;;;;;1.10;0.80;;;26.40;54.00;;;;;;5033505;28;20257;-70
2023/07/20 08:41:43;;;;;;;0.60;0.60;;;25.70;54.50;;;;;;5033223;28;20205;-70
2023/07/20 08:44:10;;;;;;;0.73;0.50;;;25.10;55.00;;;;;;5032920;28;20209;-70
2023/07/20 08:46:38;;;;;;;0.90;0.90;;;25.20;56.10;;;;;;5033133;28;20277;-70
2023/07/20 08:49:05;;;;;;;0.90;0.90;;;25.40;56.30;;;;;;5032774;28;20435;-70
2023/07/20 08:51:31;;;;;;;0.73;0.73;;;25.60;54.70;;;;;;5032030;28;20416;-70
2023/07/20 08:53:58;;;;;;;1.00;0.90;;;26.00;56.00;;;;;;5032818;28;20475;-70
2023/07/20 08:56:26;;;;;;;0.70;0.70;;;26.30;54.70;;;;;;5033147;28;20421;-70
2023/07/20 08:58:56;;;;;;;0.50;0.40;;;26.60;54.70;;;;;;5032917;28;20550;-71
2023/07/20 09:01:22;;;;;;;0.73;0.73;;;26.60;53.30;;;;;;5032853;28;20810;-70
2023/07/20 09:03:49;;;;;;;2.10;1.20;;;26.40;54.80;;;;;;5032861;28;20464;-70
2023/07/20 09:06:15;;;;;;;0.50;0.50;;;25.60;54.30;;;;;;5014740;28;20769;-70
2023/07/20 09:08:42;;;;;;;0.97;0.93;;;25.20;54.30;;;;;;5035998;28;20923;-70
2023/07/20 09:11:08;;;;;;;0.50;0.50;;;25.10;57.20;;;;;;5036447;28;20402;-70
2023/07/20 09:13:34;;;;;;;0.83;0.70;;;25.80;55.70;;;;;;5036227;28;20960;-70
2023/07/20 09:16:00;;;;;;;0.40;0.40;;;26.30;52.00;;;;;;5036813;28;20383;-70
2023/07/20 09:18:30;;;;;;;0.60;0.60;;;26.60;53.60;;;;;;5035575;28;20959;-70
2023/07/20 09:21:02;;;;;;;0.40;0.40;;;25.80;83.70;;;;;;5035776;28;20249;-70
2023/07/20 09:23:34;;;;;;;0.63;0.50;;;26.00;55.80;;;;;;5035933;28;20423;-69
2023/07/20 09:26:01;;;;;;;0.60;0.57;;;25.70;56.40;;;;;;5036369;28;20428;-69
2023/07/20 09:28:27;;;;;;;1.33;0.80;;;25.50;55.50;;;;;;5036319;28;20414;-70
2023/07/20 09:30:56;;;;;;;0.50;0.50;;;26.40;86.70;;;;;;5035968;28;20460;-70
2023/07/20 09:33:22;;;;;;;0.80;0.77;;;26.90;55.60;;;;;;5036296;28;20410;-70
2023/07/20 09:35:48;;;;;;;0.60;0.60;;;;;;;;;;5036147;28;20484;-70
2023/07/20 09:38:15;;;;;;;1.17;0.80;;;30.00;50.00;;;;;;5036002;28;20436;-70
2023/07/20 09:40:42;;;;;;;0.80;0.80;;;31.70;45.50;;;;;;5036272;28;20488;-71
2023/07/20 09:43:09;;;;;;;1.07;0.97;;;32.90;47.50;;;;;;5035980;28;20461;-70
2023/07/20 09:45:39;;;;;;;0.90;0.90;;;33.20;45.10;;;;;;5035889;28;20417;-71
2023/07/20 09:48:06;;;;;;;2.53;0.93;;;34.00;43.70;;;;;;5035857;28;20837;-70
2023/07/20 09:50:42;;;;;;;1.13;0.70;;;34.20;43.00;;;;;;5035907;28;20401;-70
2023/07/20 09:53:12;;;;;;;1.20;1.10;;;34.40;40.60;;;;;;5035931;28;21019;-71
2023/07/20 09:55:39;;;;;;;0.70;0.57;;;34.80;40.30;;;;;;5035974;28;20488;-70
2023/07/20 09:58:06;;;;;;;0.87;0.87;;;34.30;40.00;;;;;;5035616;28;20425;-71
2023/07/20 10:00:34;;;;;;;1.40;0.83;;;34.10;41.80;;;;;;5035593;28;20413;-71
2023/07/20 10:03:03;;;;;;;1.50;1.20;;;31.50;64.30;;;;;;5035295;28;20834;-70
2023/07/20 10:05:36;;;;;;;1.27;1.00;;;31.60;42.80;;;;;;5035598;28;20412;-70
2023/07/20 10:08:04;;;;;;;3.90;0.70;;;31.40;43.70;;;;;;5035609;28;20430;-70
2023/07/20 10:10:32;;;;;;;0.60;0.60;;;32.10;43.50;;;;;;5035472;28;20464;-70
2023/07/20 10:13:00;;;;;;;0.77;0.70;;;32.30;43.20;;;;;;5035274;28;20500;-70
2023/07/20 10:15:36;;;;;;;0.83;0.70;;;32.00;44.40;;;;;;5035250;28;20504;-70
2023/07/20 10:18:31;;;;;;;0.60;0.40;;;31.20;45.00;;;;;;5034750;28;20457;-70
2023/07/20 10:20:59;;;;;;;1.73;0.87;;;30.90;46.00;;;;;;5035133;28;20397;-70
2023/07/20 10:23:28;;;;;;;0.90;0.57;;;30.40;47.30;;;;;;5035105;28;20972;-70
2023/07/20 10:25:54;;;;;;;0.60;0.60;;;29.80;48.40;;;;;;5035205;28;20413;-70
2023/07/20 10:28:23;;;;;;;0.67;0.60;;;29.80;47.40;;;;;;5034527;28;20425;-70
2023/07/20 10:30:49;;;;;;;1.30;1.17;;;30.50;49.70;;;;;;5034002;28;20414;-70
2023/07/20 10:33:17;;;;;;;0.70;0.67;;;30.50;47.20;;;;;;5035254;28;20768;-69
2023/07/20 10:36:00;;;;;;;1.70;0.60;;;29.80;47.60;;;;;;5035016;28;20406;-70
2023/07/20 10:38:51;;;;;;;0.50;0.50;;;29.20;49.90;;;;;;5035092;28;20429;-70
2023/07/20 10:41:33;;;;;;;0.70;0.70;;;29.10;50.00;;;;;;5034998;28;20774;-71
2023/07/20 10:44:02;;;;;;;0.73;0.70;;;29.20;49.40;;;;;;5034972;28;20481;-70
2023/07/20 10:46:39;;;;;;;0.50;0.40;;;29.90;50.00;;;;;;5035200;28;20480;-70
2023/07/20 10:49:09;;;;;;;0.67;0.60;;;30.30;46.30;;;;;;5034635;28;20453;-70
2023/07/20 10:51:49;;;;;;;0.73;0.73;;;29.70;45.60;;;;;;5034632;28;20402;-70
2023/07/20 10:54:17;;;;;;;0.50;0.50;;;29.60;46.90;;;;;;5034914;28;20401;-70
2023/07/20 10:56:44;;;;;;;0.90;0.73;;;29.90;48.50;;;;;;5034553;28;20409;-70
2023/07/20 10:59:25;;;;;;;0.50;0.50;;;30.40;48.50;;;;;;5034502;28;20792;-70
2023/07/20 11:02:05;;;;;;;0.60;0.60;;;30.50;46.20;;;;;;5034418;28;20416;-70
2023/07/20 11:04:40;;;;;;;0.77;0.70;;;30.50;47.20;;;;;;5034700;28;20920;-70
2023/07/20 11:07:06;;;;;;;0.90;0.70;;;29.80;73.10;;;;;;5034269;28;20905;-71
2023/07/20 11:09:38;;;;;;;1.23;0.60;;;29.50;47.60;;;;;;5034340;28;20476;-70
2023/07/20 11:12:16;;;;;;;1.00;1.00;;;28.50;76.80;;;;;;5016330;28;20943;-70
2023/07/20 11:15:02;;;;;;;1.43;0.60;;;28.30;75.70;;;;;;5034403;28;20368;-70
2023/07/20 11:17:32;;;;;;;4.90;1.00;;;28.20;79.50;;;;;;5016072;28;20950;-70
2023/07/20 11:20:03;;;;;;;0.60;0.60;;;28.50;50.10;;;;;;5034547;28;20387;-70
2023/07/20 11:22:31;;;;;;;1.33;1.00;;;28.30;49.10;;;;;;5034137;28;20808;-69
2023/07/20 11:24:57;;;;;;;0.70;0.70;;;27.90;50.30;;;;;;5034193;28;20719;-70
2023/07/20 11:27:23;;;;;;;0.50;0.50;;;27.70;72.20;;;;;;5033958;28;20400;-70
2023/07/20 11:29:50;;;;;;;0.80;0.63;;;27.70;50.20;;;;;;5034012;28;20494;-70
2023/07/20 11:32:25;;;;;;;0.50;0.50;;;27.70;81.60;;;;;;5033765;28;20390;-70
2023/07/20 11:34:51;;;;;;;0.47;0.47;;;26.90;82.70;;;;;;5033942;28;20371;-70
2023/07/20 11:37:19;;;;;;;1.17;1.07;;;26.70;83.50;;;;;;5033367;28;20771;-70
2023/07/20 11:39:45;;;;;;;1.10;0.70;;;;;;;;;;5034088;28;20985;-70
2023/07/20 11:42:11;;;;;;;0.40;0.40;;;26.00;74.00;;;;;;5032887;28;20434;-70
2023/07/20 11:44:38;;;;;;;0.50;0.50;;;26.40;51.40;;;;;;5033589;28;20745;-70
2023/07/20 11:47:05;;;;;;;1.60;0.60;;;26.40;78.10;;;;;;5033556;28;20392;-70
2023/07/20 11:49:37;;;;;;;1.73;0.53;;;26.20;71.00;;;;;;5033688;28;20388;-70
2023/07/20 11:52:06;;;;;;;1.47;1.27;;;25.70;48.30;;;;;;5033580;28;20384;-70
2023/07/20 11:54:33;;;;;;;0.40;0.40;;;25.90;80.90;;;;;;5033791;28;20457;-70
2023/07/20 11:57:05;;;;;;;1.03;0.70;;;26.30;73.90;;;;;;5033635;28;20924;-70
2023/07/20 11:59:31;;;;;;;0.50;0.50;;;26.10;85.10;;;;;;5033629;28;20410;-70
2023/07/20 12:01:58;;;;;;;0.80;0.80;;;26.20;87.00;;;;;;5033563;28;20405;-70
2023/07/20 12:04:24;;;;;;;0.50;0.50;;;25.30;82.80;;;;;;5033755;28;20926;-70
2023/07/20 12:06:49;;;;;;;1.03;1.03;;;26.00;75.50;;;;;;5033477;28;20489;-70
2023/07/20 12:09:17;;;;;;;2.57;0.43;;;25.60;85.10;;;;;;5033320;28;20631;-70
2023/07/20 12:11:45;;;;;;;0.53;0.53;;;25.40;51.00;;;;;;5033205;28;20175;-69
2023/07/20 12:14:11;;;;;;;5.40;0.87;;;25.40;51.50;;;;;;5033203;28;20413;-70
2023/07/20 12:16:40;;;;;;;0.97;0.80;;;25.50;52.00;;;;;;5033480;28;20406;-69
2023/07/20 12:19:08;;;;;;;1.30;0.60;;;25.40;51.00;;;;;;5033136;28;20456;-70
2023/07/20 12:21:36;;;;;;;0.67;0.50;;;25.40;49.00;;;;;;5033157;28;20463;-70
2023/07/20 12:24:03;;;;;;;0.40;0.40;;;25.50;49.10;;;;;;5033303;28;20449;-70
2023/07/20 12:26:30;;;;;;;0.60;0.50;;;25.60;50.50;;;;;;5032447;28;20404;-70
2023/07/20 12:28:56;;;;;;;0.83;0.83;;;25.60;51.20;;;;;;5033080;28;20438;-70
2023/07/20 12:31:24;;;;;;;0.77;0.60;;;25.50;48.40;;;;;;5032566;28;20787;-70
2023/07/20 12:33:50;;;;;;;2.77;0.77;;;25.30;47.90;;;;;;5033343;28;20171;-70
2023/07/20 12:36:16;;;;;;;0.70;0.60;;;25.30;49.70;;;;;;5033170;28;20429;-70
2023/07/20 12:38:42;;;;;;;0.60;0.60;;;25.10;49.90;;;;;;5015495;28;20953;-69
2023/07/20 12:41:09;;;;;;;0.60;0.60;;;25.30;51.90;;;;;;5032888;28;20181;-70
2023/07/20 12:43:35;;;;;;;0.47;0.47;;;25.50;51.70;;;;;;5036944;28;20248;-70
2023/07/20 12:46:01;;;;;;;0.57;0.53;;;25.80;49.30;;;;;;5037478;28;20405;-70
2023/07/20 12:48:27;;;;;;;0.77;0.73;;;25.80;49.40;;;;;;5037421;28;20200;-70
2023/07/20 12:50:53;;;;;;;0.53;0.53;;;25.50;45.70;;;;;;5036480;28;20467;-70
2023/07/20 12:53:18;;;;;;;1.10;0.80;;;25.50;48.30;;;;;;5036796;28;20637;-70
2023/07/20 12:55:44;;;;;;;0.50;0.50;;;25.50;50.00;;;;;;5036490;28;20264;-70